sensor_id;sensor_type;location;lat;lon;timestamp;pressure;altitude;pressure_sealevel;temperature;humidity
19884;BME280;10104;50.732;10.174;2023-06-14T00:01:40;97693.59;;;17.62;47.94
19884;BME280;10104;50.732;10.174;2023-06-14T00:04:02;97689.78;;;17.34;48.69
19884;BME280;10104;50.732;10.174;2023-06-14T00:06:23;97701.09;;;17.36;48.38
19884;BME280;10104;50.732;10.174;2023-06-14T00:08:45;97694.78;;;17.43;48.12
19884;BME280;10104;50.732;10.174;2023-06-14T00:11:07;97703.53;;;17.38;47.99
19884;BME280;10104;50.732;10.174;2023-06-14T00:13:29;97700.84;;;17.38;49.00
19884;BME280;10104;50.732;10.174;2023-06-14T00:15:50;97703.88;;;17.30;49.21
19884;BME280;10104;50.732;10.174;2023-06-14T00:18:16;97696.22;;;16.98;50.09
19884;BME280;10104;50.732;10.174;2023-06-14T00:20:37;97704.84;;;16.77;50.35
19884;BME280;10104;50.732;10.174;2023-06-14T00:23:00;97708.34;;;16.66;50.35
19884;BME280;10104;50.732;10.174;2023-06-14T00:25:23;97701.81;;;16.62;50.51
19884;BME280;10104;50.732;10.174;2023-06-14T00:27:49;97702.75;;;16.79;49.77
19884;BME280;10104;50.732;10.174;2023-06-14T00:30:11;97702.81;;;16.49;50.99
19884;BME280;10104;50.732;10.174;2023-06-14T00:32:33;97700.81;;;16.33;51.76
19884;BME280;10104;50.732;10.174;2023-06-14T00:34:54;97693.31;;;16.12;51.82
19884;BME280;10104;50.732;10.174;2023-06-14T00:37:16;97690.81;;;16.29;51.02
19884;BME280;10104;50.732;10.174;2023-06-14T00:39:37;97689.53;;;16.31;50.44
19884;BME280;10104;50.732;10.174;2023-06-14T00:41:59;97691.38;;;16.31;50.52
19884;BME280;10104;50.732;10.174;2023-06-14T00:44:20;97685.31;;;16.24;51.01
19884;BME280;10104;50.732;10.174;2023-06-14T00:46:44;97682.16;;;16.03;51.85
19884;BME280;10104;50.732;10.174;2023-06-14T00:49:07;97679.50;;;16.15;51.35
19884;BME280;10104;50.732;10.174;2023-06-14T00:51:28;97680.88;;;16.06;51.31
19884;BME280;10104;50.732;10.174;2023-06-14T00:53:50;97691.53;;;15.94;51.85
19884;BME280;10104;50.732;10.174;2023-06-14T00:56:13;97689.06;;;15.93;51.75
19884;BME280;10104;50.732;10.174;2023-06-14T00:58:36;97692.56;;;15.93;51.37
19884;BME280;10104;50.732;10.174;2023-06-14T01:00:58;97698.28;;;15.97;51.32
19884;BME280;10104;50.732;10.174;2023-06-14T01:03:19;97699.63;;;15.88;51.23
19884;BME280;10104;50.732;10.174;2023-06-14T01:05:43;97701.94;;;15.84;51.36
19884;BME280;10104;50.732;10.174;2023-06-14T01:13:25;97702.50;;;15.56;52.05
19884;BME280;10104;50.732;10.174;2023-06-14T01:15:50;97702.78;;;15.48;52.67
19884;BME280;10104;50.732;10.174;2023-06-14T01:18:12;97700.06;;;15.36;53.69
19884;BME280;10104;50.732;10.174;2023-06-14T01:20:39;97703.63;;;15.30;53.28
19884;BME280;10104;50.732;10.174;2023-06-14T01:23:01;97698.56;;;15.22;53.78
19884;BME280;10104;50.732;10.174;2023-06-14T01:25:23;97708.69;;;15.14;54.11
19884;BME280;10104;50.732;10.174;2023-06-14T01:27:58;97705.75;;;15.22;53.08
19884;BME280;10104;50.732;10.174;2023-06-14T01:30:22;97698.56;;;15.22;52.86
19884;BME280;10104;50.732;10.174;2023-06-14T01:32:45;97703.81;;;15.11;53.11
19884;BME280;10104;50.732;10.174;2023-06-14T01:35:07;97702.47;;;15.02;54.09
19884;BME280;10104;50.732;10.174;2023-06-14T01:37:29;97693.66;;;15.01;53.41
19884;BME280;10104;50.732;10.174;2023-06-14T01:39:52;97700.41;;;15.04;53.86
19884;BME280;10104;50.732;10.174;2023-06-14T01:42:15;97697.13;;;15.02;53.45
19884;BME280;10104;50.732;10.174;2023-06-14T01:44:37;97695.19;;;14.90;53.86
19884;BME280;10104;50.732;10.174;2023-06-14T01:46:59;97690.19;;;14.76;54.96
19884;BME280;10104;50.732;10.174;2023-06-14T01:49:21;97699.03;;;14.76;53.81
19884;BME280;10104;50.732;10.174;2023-06-14T01:51:42;97698.38;;;14.81;53.84
19884;BME280;10104;50.732;10.174;2023-06-14T01:54:04;97690.75;;;14.84;53.75
19884;BME280;10104;50.732;10.174;2023-06-14T01:56:25;97690.75;;;14.84;53.86
19884;BME280;10104;50.732;10.174;2023-06-14T01:58:47;97699.94;;;14.64;54.95
19884;BME280;10104;50.732;10.174;2023-06-14T02:01:09;97701.59;;;14.40;55.63
19884;BME280;10104;50.732;10.174;2023-06-14T02:03:32;97707.25;;;14.50;54.76
19884;BME280;10104;50.732;10.174;2023-06-14T02:05:54;97698.78;;;14.60;54.81
19884;BME280;10104;50.732;10.174;2023-06-14T02:08:17;97697.06;;;14.40;56.46
19884;BME280;10104;50.732;10.174;2023-06-14T02:10:39;97701.47;;;14.22;56.83
19884;BME280;10104;50.732;10.174;2023-06-14T02:13:00;97701.59;;;14.33;55.84
19884;BME280;10104;50.732;10.174;2023-06-14T02:15:22;97700.94;;;14.13;56.71
19884;BME280;10104;50.732;10.174;2023-06-14T02:17:47;97699.00;;;13.95;57.43
19884;BME280;10104;50.732;10.174;2023-06-14T02:20:09;97699.34;;;14.05;56.31
19884;BME280;10104;50.732;10.174;2023-06-14T02:22:31;97701.75;;;13.82;57.87
19884;BME280;10104;50.732;10.174;2023-06-14T02:24:52;97708.31;;;13.80;57.20
19884;BME280;10104;50.732;10.174;2023-06-14T02:27:22;97703.94;;;13.92;56.44
19884;BME280;10104;50.732;10.174;2023-06-14T02:29:44;97709.31;;;13.78;56.42
19884;BME280;10104;50.732;10.174;2023-06-14T02:32:06;97709.88;;;13.94;56.51
19884;BME280;10104;50.732;10.174;2023-06-14T02:34:31;97705.94;;;13.96;55.88
19884;BME280;10104;50.732;10.174;2023-06-14T02:36:52;97707.78;;;13.96;55.75
19884;BME280;10104;50.732;10.174;2023-06-14T02:39:14;97711.09;;;13.91;55.24
19884;BME280;10104;50.732;10.174;2023-06-14T02:41:35;97708.81;;;13.63;57.02
19884;BME280;10104;50.732;10.174;2023-06-14T02:43:57;97717.94;;;13.81;56.33
19884;BME280;10104;50.732;10.174;2023-06-14T02:46:19;97716.31;;;13.73;55.60
19884;BME280;10104;50.732;10.174;2023-06-14T02:48:41;97714.53;;;13.60;56.17
19884;BME280;10104;50.732;10.174;2023-06-14T02:51:03;97713.31;;;13.63;56.01
19884;BME280;10104;50.732;10.174;2023-06-14T02:53:24;97715.72;;;13.64;56.24
19884;BME280;10104;50.732;10.174;2023-06-14T02:55:46;97715.16;;;13.62;55.77
19884;BME280;10104;50.732;10.174;2023-06-14T02:58:08;97721.72;;;13.53;56.19
19884;BME280;10104;50.732;10.174;2023-06-14T03:00:29;97724.47;;;13.27;58.89
19884;BME280;10104;50.732;10.174;2023-06-14T03:02:52;97730.84;;;13.26;57.94
19884;BME280;10104;50.732;10.174;2023-06-14T03:05:13;97734.69;;;13.36;57.49
19884;BME280;10104;50.732;10.174;2023-06-14T03:07:35;97725.44;;;13.46;57.41
19884;BME280;10104;50.732;10.174;2023-06-14T03:10:02;97732.66;;;13.32;58.28
19884;BME280;10104;50.732;10.174;2023-06-14T03:12:24;97735.53;;;13.30;57.40
19884;BME280;10104;50.732;10.174;2023-06-14T03:14:46;97733.91;;;12.96;60.17
19884;BME280;10104;50.732;10.174;2023-06-14T03:17:08;97739.03;;;12.98;59.10
19884;BME280;10104;50.732;10.174;2023-06-14T03:19:30;97738.22;;;12.91;59.20
19884;BME280;10104;50.732;10.174;2023-06-14T03:21:52;97741.09;;;12.96;58.68
19884;BME280;10104;50.732;10.174;2023-06-14T03:24:13;97740.66;;;12.92;58.91
19884;BME280;10104;50.732;10.174;2023-06-14T03:26:37;97758.69;;;12.77;60.47
19884;BME280;10104;50.732;10.174;2023-06-14T03:28:59;97754.38;;;12.89;58.71
19884;BME280;10104;50.732;10.174;2023-06-14T03:31:20;97763.19;;;12.77;59.96
19884;BME280;10104;50.732;10.174;2023-06-14T03:33:42;97766.44;;;12.92;58.73
19884;BME280;10104;50.732;10.174;2023-06-14T03:36:05;97766.03;;;12.88;59.69
19884;BME280;10104;50.732;10.174;2023-06-14T03:38:26;97768.28;;;12.78;59.79
19884;BME280;10104;50.732;10.174;2023-06-14T03:40:48;97765.63;;;12.78;61.18
19884;BME280;10104;50.732;10.174;2023-06-14T03:43:10;97775.84;;;12.81;59.79
19884;BME280;10104;50.732;10.174;2023-06-14T03:45:31;97778.06;;;12.91;59.04
19884;BME280;10104;50.732;10.174;2023-06-14T03:47:53;97775.84;;;13.01;58.68
19884;BME280;10104;50.732;10.174;2023-06-14T03:50:17;97789.34;;;12.86;60.02
19884;BME280;10104;50.732;10.174;2023-06-14T03:52:39;97782.81;;;12.89;59.84
19884;BME280;10104;50.732;10.174;2023-06-14T03:55:04;97795.06;;;12.77;60.45
19884;BME280;10104;50.732;10.174;2023-06-14T03:57:29;97793.63;;;12.94;59.26
19884;BME280;10104;50.732;10.174;2023-06-14T03:59:51;97796.47;;;13.06;58.92
19884;BME280;10104;50.732;10.174;2023-06-14T04:02:12;97797.69;;;13.10;59.16
19884;BME280;10104;50.732;10.174;2023-06-14T04:04:37;97801.63;;;13.20;59.21
19884;BME280;10104;50.732;10.174;2023-06-14T04:06:58;97796.28;;;13.07;61.21
19884;BME280;10104;50.732;10.174;2023-06-14T04:09:23;97804.44;;;13.06;60.88
19884;BME280;10104;50.732;10.174;2023-06-14T04:11:45;97800.19;;;13.18;60.34
19884;BME280;10104;50.732;10.174;2023-06-14T04:14:07;97806.28;;;13.12;61.44
19884;BME280;10104;50.732;10.174;2023-06-14T04:16:29;97815.50;;;13.22;60.33
19884;BME280;10104;50.732;10.174;2023-06-14T04:18:50;97816.31;;;13.36;60.31
19884;BME280;10104;50.732;10.174;2023-06-14T04:21:13;97818.75;;;13.44;60.14
19884;BME280;10104;50.732;10.174;2023-06-14T04:23:35;97814.44;;;13.56;59.91
19884;BME280;10104;50.732;10.174;2023-06-14T04:25:56;97808.84;;;13.64;60.57
19884;BME280;10104;50.732;10.174;2023-06-14T04:28:23;97818.91;;;13.62;61.14
19884;BME280;10104;50.732;10.174;2023-06-14T04:30:46;97817.75;;;13.45;63.92
19884;BME280;10104;50.732;10.174;2023-06-14T04:33:08;97811.53;;;13.58;63.16
19884;BME280;10104;50.732;10.174;2023-06-14T04:35:31;97806.44;;;13.63;62.74
19884;BME280;10104;50.732;10.174;2023-06-14T04:37:57;97810.22;;;13.87;62.79
19884;BME280;10104;50.732;10.174;2023-06-14T04:40:19;97808.72;;;14.04;63.08
19884;BME280;10104;50.732;10.174;2023-06-14T04:42:40;97808.91;;;14.09;62.74
19884;BME280;10104;50.732;10.174;2023-06-14T04:45:02;97810.50;;;14.16;62.44
19884;BME280;10104;50.732;10.174;2023-06-14T04:47:24;97807.84;;;14.16;62.53
19884;BME280;10104;50.732;10.174;2023-06-14T04:49:51;97804.09;;;14.31;62.48
19884;BME280;10104;50.732;10.174;2023-06-14T04:52:14;97807.75;;;14.36;62.26
19884;BME280;10104;50.732;10.174;2023-06-14T04:54:36;97805.44;;;14.46;62.38
19884;BME280;10104;50.732;10.174;2023-06-14T04:57:04;97803.72;;;14.58;62.60
19884;BME280;10104;50.732;10.174;2023-06-14T04:59:26;97801.00;;;14.65;62.52
19884;BME280;10104;50.732;10.174;2023-06-14T05:01:49;97805.69;;;14.70;62.63
19884;BME280;10104;50.732;10.174;2023-06-14T05:04:10;97806.66;;;14.75;62.70
19884;BME280;10104;50.732;10.174;2023-06-14T05:06:32;97809.06;;;14.83;62.64
19884;BME280;10104;50.732;10.174;2023-06-14T05:08:53;97809.69;;;14.85;62.82
19884;BME280;10104;50.732;10.174;2023-06-14T05:11:15;97810.06;;;14.89;62.35
19884;BME280;10104;50.732;10.174;2023-06-14T05:13:38;97806.69;;;15.00;62.77
19884;BME280;10104;50.732;10.174;2023-06-14T05:16:01;97808.06;;;15.09;62.21
19884;BME280;10104;50.732;10.174;2023-06-14T05:18:22;97808.88;;;15.10;62.16
19884;BME280;10104;50.732;10.174;2023-06-14T05:20:44;97800.16;;;15.21;61.99
19884;BME280;10104;50.732;10.174;2023-06-14T05:23:05;97806.78;;;15.36;61.93
19884;BME280;10104;50.732;10.174;2023-06-14T05:25:27;97801.00;;;15.39;61.81
19884;BME280;10104;50.732;10.174;2023-06-14T05:27:49;97806.31;;;15.39;62.65
19884;BME280;10104;50.732;10.174;2023-06-14T05:30:11;97811.72;;;15.33;62.90
19884;BME280;10104;50.732;10.174;2023-06-14T05:32:33;97806.28;;;15.21;65.45
19884;BME280;10104;50.732;10.174;2023-06-14T05:34:54;97805.41;;;15.27;64.95
19884;BME280;10104;50.732;10.174;2023-06-14T05:37:16;97815.97;;;15.41;64.26
19884;BME280;10104;50.732;10.174;2023-06-14T05:39:38;97816.38;;;15.37;65.70
19884;BME280;10104;50.732;10.174;2023-06-14T05:42:00;97818.00;;;15.20;68.07
19884;BME280;10104;50.732;10.174;2023-06-14T05:44:21;97810.72;;;15.09;70.07
19884;BME280;10104;50.732;10.174;2023-06-14T05:46:43;97813.94;;;15.18;68.94
19884;BME280;10104;50.732;10.174;2023-06-14T05:49:04;97814.88;;;15.05;69.48
19884;BME280;10104;50.732;10.174;2023-06-14T05:51:26;97819.28;;;15.18;68.20
19884;BME280;10104;50.732;10.174;2023-06-14T05:53:48;97813.13;;;15.17;68.60
19884;BME280;10104;50.732;10.174;2023-06-14T05:56:10;97812.53;;;15.33;67.82
19884;BME280;10104;50.732;10.174;2023-06-14T05:58:31;97809.72;;;15.53;66.77
19884;BME280;10104;50.732;10.174;2023-06-14T06:00:53;97811.75;;;15.51;67.13
19884;BME280;10104;50.732;10.174;2023-06-14T06:03:14;97821.72;;;15.81;65.36
19884;BME280;10104;50.732;10.174;2023-06-14T06:05:36;97821.34;;;15.77;64.80
19884;BME280;10104;50.732;10.174;2023-06-14T06:07:58;97820.31;;;15.96;64.11
19884;BME280;10104;50.732;10.174;2023-06-14T06:10:19;97825.13;;;15.88;65.21
19884;BME280;10104;50.732;10.174;2023-06-14T06:12:41;97821.00;;;15.92;64.68
19884;BME280;10104;50.732;10.174;2023-06-14T06:15:03;97820.09;;;15.98;64.15
19884;BME280;10104;50.732;10.174;2023-06-14T06:17:26;97810.13;;;16.05;63.97
19884;BME280;10104;50.732;10.174;2023-06-14T06:19:59;97819.56;;;16.07;64.80
19884;BME280;10104;50.732;10.174;2023-06-14T06:22:20;97818.13;;;16.23;64.50
19884;BME280;10104;50.732;10.174;2023-06-14T06:24:42;97827.00;;;16.35;63.63
19884;BME280;10104;50.732;10.174;2023-06-14T06:27:06;97824.81;;;16.44;63.78
19884;BME280;10104;50.732;10.174;2023-06-14T06:29:29;97831.19;;;16.61;61.68
19884;BME280;10104;50.732;10.174;2023-06-14T06:31:51;97832.56;;;16.93;59.77
19884;BME280;10104;50.732;10.174;2023-06-14T06:34:12;97831.03;;;16.97;59.58
19884;BME280;10104;50.732;10.174;2023-06-14T06:36:33;97831.22;;;16.73;60.66
19884;BME280;10104;50.732;10.174;2023-06-14T06:38:55;97831.91;;;16.68;61.12
19884;BME280;10104;50.732;10.174;2023-06-14T06:41:18;97829.59;;;16.72;59.93
19884;BME280;10104;50.732;10.174;2023-06-14T06:43:39;97828.72;;;16.89;59.63
19884;BME280;10104;50.732;10.174;2023-06-14T06:46:01;97836.25;;;16.92;60.42
19884;BME280;10104;50.732;10.174;2023-06-14T06:48:22;97831.31;;;17.19;58.79
19884;BME280;10104;50.732;10.174;2023-06-14T06:50:44;97827.38;;;17.33;58.78
19884;BME280;10104;50.732;10.174;2023-06-14T06:53:05;97830.28;;;17.44;58.07
19884;BME280;10104;50.732;10.174;2023-06-14T06:55:28;97837.25;;;17.45;57.50
19884;BME280;10104;50.732;10.174;2023-06-14T06:57:49;97842.38;;;17.58;56.91
19884;BME280;10104;50.732;10.174;2023-06-14T07:00:11;97848.81;;;17.68;57.03
19884;BME280;10104;50.732;10.174;2023-06-14T07:02:35;97842.13;;;17.59;57.17
19884;BME280;10104;50.732;10.174;2023-06-14T07:04:56;97849.81;;;17.56;56.86
19884;BME280;10104;50.732;10.174;2023-06-14T07:07:18;97849.97;;;17.61;57.98
19884;BME280;10104;50.732;10.174;2023-06-14T07:09:40;97850.72;;;17.96;56.81
19884;BME280;10104;50.732;10.174;2023-06-14T07:12:03;97844.31;;;17.97;56.62
19884;BME280;10104;50.732;10.174;2023-06-14T07:14:25;97849.44;;;17.99;55.50
19884;BME280;10104;50.732;10.174;2023-06-14T07:16:46;97850.25;;;18.11;55.36
19884;BME280;10104;50.732;10.174;2023-06-14T07:19:08;97855.44;;;18.29;53.92
19884;BME280;10104;50.732;10.174;2023-06-14T07:21:30;97854.16;;;18.32;53.67
19884;BME280;10104;50.732;10.174;2023-06-14T07:23:55;97859.56;;;18.48;53.50
19884;BME280;10104;50.732;10.174;2023-06-14T07:26:17;97857.34;;;18.57;53.78
19884;BME280;10104;50.732;10.174;2023-06-14T07:28:38;97863.03;;;18.61;53.25
19884;BME280;10104;50.732;10.174;2023-06-14T07:31:00;97871.13;;;18.77;53.49
19884;BME280;10104;50.732;10.174;2023-06-14T07:33:21;97868.88;;;19.03;52.55
19884;BME280;10104;50.732;10.174;2023-06-14T07:35:43;97861.91;;;19.18;52.91
19884;BME280;10104;50.732;10.174;2023-06-14T07:38:04;97864.19;;;19.43;51.99
19884;BME280;10104;50.732;10.174;2023-06-14T07:40:26;97861.75;;;19.42;53.54
19884;BME280;10104;50.732;10.174;2023-06-14T07:42:47;97854.16;;;19.38;51.60
19884;BME280;10104;50.732;10.174;2023-06-14T07:45:13;97857.19;;;19.59;50.64
19884;BME280;10104;50.732;10.174;2023-06-14T07:47:36;97856.16;;;19.60;47.88
19884;BME280;10104;50.732;10.174;2023-06-14T07:49:57;97861.28;;;19.61;47.96
19884;BME280;10104;50.732;10.174;2023-06-14T07:52:19;97849.38;;;19.57;47.48
19884;BME280;10104;50.732;10.174;2023-06-14T07:54:41;97857.84;;;19.66;48.10
19884;BME280;10104;50.732;10.174;2023-06-14T07:57:02;97851.25;;;19.57;48.30
19884;BME280;10104;50.732;10.174;2023-06-14T07:59:24;97860.28;;;19.67;47.35
19884;BME280;10104;50.732;10.174;2023-06-14T08:01:45;97852.88;;;19.74;47.47
19884;BME280;10104;50.732;10.174;2023-06-14T08:04:08;97851.72;;;19.70;47.92
19884;BME280;10104;50.732;10.174;2023-06-14T08:06:30;97861.53;;;19.82;48.59
19884;BME280;10104;50.732;10.174;2023-06-14T08:08:52;97856.50;;;19.85;47.97
19884;BME280;10104;50.732;10.174;2023-06-14T08:11:13;97855.81;;;19.95;47.85
19884;BME280;10104;50.732;10.174;2023-06-14T08:13:34;97854.44;;;20.14;47.37
19884;BME280;10104;50.732;10.174;2023-06-14T08:15:56;97854.16;;;20.10;47.22
19884;BME280;10104;50.732;10.174;2023-06-14T08:18:18;97855.41;;;20.03;46.65
19884;BME280;10104;50.732;10.174;2023-06-14T08:20:40;97852.31;;;19.94;48.06
19884;BME280;10104;50.732;10.174;2023-06-14T08:23:02;97854.56;;;20.02;47.92
19884;BME280;10104;50.732;10.174;2023-06-14T08:25:25;97863.44;;;20.25;47.52
19884;BME280;10104;50.732;10.174;2023-06-14T08:27:47;97859.59;;;20.15;47.46
19884;BME280;10104;50.732;10.174;2023-06-14T08:30:09;97861.34;;;20.27;46.99
19884;BME280;10104;50.732;10.174;2023-06-14T08:32:31;97856.41;;;20.40;46.30
19884;BME280;10104;50.732;10.174;2023-06-14T08:34:53;97863.25;;;20.75;45.95
19884;BME280;10104;50.732;10.174;2023-06-14T08:37:26;97864.47;;;20.89;45.67
19884;BME280;10104;50.732;10.174;2023-06-14T08:39:48;97866.38;;;20.93;45.70
19884;BME280;10104;50.732;10.174;2023-06-14T08:42:09;97861.22;;;20.87;46.46
19884;BME280;10104;50.732;10.174;2023-06-14T08:44:40;97867.13;;;20.84;45.20
19884;BME280;10104;50.732;10.174;2023-06-14T08:47:02;97873.84;;;20.86;45.97
19884;BME280;10104;50.732;10.174;2023-06-14T08:49:25;97865.69;;;21.03;45.92
19884;BME280;10104;50.732;10.174;2023-06-14T08:51:49;97872.03;;;20.92;45.00
19884;BME280;10104;50.732;10.174;2023-06-14T08:54:15;97873.03;;;21.13;45.97
19884;BME280;10104;50.732;10.174;2023-06-14T08:56:38;97875.16;;;21.37;45.42
19884;BME280;10104;50.732;10.174;2023-06-14T08:59:00;97870.19;;;21.61;44.11
19884;BME280;10104;50.732;10.174;2023-06-14T09:01:28;97865.53;;;21.89;43.08
19884;BME280;10104;50.732;10.174;2023-06-14T09:03:50;97870.41;;;22.44;41.47
19884;BME280;10104;50.732;10.174;2023-06-14T09:06:12;97868.28;;;22.56;41.76
19884;BME280;10104;50.732;10.174;2023-06-14T09:08:37;97879.00;;;22.41;42.58
19884;BME280;10104;50.732;10.174;2023-06-14T09:11:02;97880.97;;;21.98;42.81
19884;BME280;10104;50.732;10.174;2023-06-14T09:13:23;97880.75;;;22.05;43.04
19884;BME280;10104;50.732;10.174;2023-06-14T09:15:45;97889.97;;;22.09;42.98
19884;BME280;10104;50.732;10.174;2023-06-14T09:18:07;97888.66;;;22.22;43.20
19884;BME280;10104;50.732;10.174;2023-06-14T09:20:30;97891.03;;;22.08;42.82
19884;BME280;10104;50.732;10.174;2023-06-14T09:22:51;97894.09;;;22.27;43.03
19884;BME280;10104;50.732;10.174;2023-06-14T09:25:14;97897.28;;;22.24;42.61
19884;BME280;10104;50.732;10.174;2023-06-14T09:27:56;97897.13;;;22.45;43.16
19884;BME280;10104;50.732;10.174;2023-06-14T09:30:20;97890.38;;;22.53;43.01
19884;BME280;10104;50.732;10.174;2023-06-14T09:32:42;97896.38;;;22.65;41.67
19884;BME280;10104;50.732;10.174;2023-06-14T09:35:05;97902.38;;;22.72;41.17
19884;BME280;10104;50.732;10.174;2023-06-14T09:37:31;97900.78;;;22.76;42.10
19884;BME280;10104;50.732;10.174;2023-06-14T09:39:52;97901.03;;;22.75;41.58
19884;BME280;10104;50.732;10.174;2023-06-14T09:42:18;97904.44;;;22.55;41.20
19884;BME280;10104;50.732;10.174;2023-06-14T09:44:40;97900.44;;;22.63;42.36
19884;BME280;10104;50.732;10.174;2023-06-14T09:47:02;97910.72;;;22.71;41.41
19884;BME280;10104;50.732;10.174;2023-06-14T09:49:24;97904.28;;;22.77;41.99
19884;BME280;10104;50.732;10.174;2023-06-14T09:51:50;97907.50;;;22.74;42.24
19884;BME280;10104;50.732;10.174;2023-06-14T09:54:16;97902.06;;;22.69;41.19
19884;BME280;10104;50.732;10.174;2023-06-14T09:56:44;97909.34;;;22.58;41.48
19884;BME280;10104;50.732;10.174;2023-06-14T09:59:09;97907.00;;;22.92;40.83
19884;BME280;10104;50.732;10.174;2023-06-14T10:01:31;97897.88;;;23.13;40.83
19884;BME280;10104;50.732;10.174;2023-06-14T10:04:01;97902.50;;;23.48;40.87
19884;BME280;10104;50.732;10.174;2023-06-14T10:06:41;97906.03;;;23.69;40.09
19884;BME280;10104;50.732;10.174;2023-06-14T10:09:04;97910.59;;;23.94;41.03
19884;BME280;10104;50.732;10.174;2023-06-14T10:11:28;97905.16;;;24.19;39.47
19884;BME280;10104;50.732;10.174;2023-06-14T10:13:50;97908.28;;;24.46;37.48
19884;BME280;10104;50.732;10.174;2023-06-14T10:19:00;97901.94;;;25.20;36.59
19884;BME280;10104;50.732;10.174;2023-06-14T10:21:31;97894.66;;;25.84;36.45
19884;BME280;10104;50.732;10.174;2023-06-14T10:23:53;97893.19;;;25.96;36.00
19884;BME280;10104;50.732;10.174;2023-06-14T10:26:22;97890.34;;;26.06;35.41
19884;BME280;10104;50.732;10.174;2023-06-14T10:28:55;97888.31;;;25.93;35.48
19884;BME280;10104;50.732;10.174;2023-06-14T10:31:18;97895.44;;;25.60;36.67
19884;BME280;10104;50.732;10.174;2023-06-14T10:33:48;97899.47;;;25.63;36.40
19884;BME280;10104;50.732;10.174;2023-06-14T10:38:44;97897.19;;;25.41;36.24
19884;BME280;10104;50.732;10.174;2023-06-14T10:41:06;97894.78;;;25.34;37.16
19884;BME280;10104;50.732;10.174;2023-06-14T10:43:28;97893.69;;;25.35;36.50
19884;BME280;10104;50.732;10.174;2023-06-14T10:46:14;97896.16;;;25.32;36.17
19884;BME280;10104;50.732;10.174;2023-06-14T10:48:40;97885.63;;;25.30;36.81
19884;BME280;10104;50.732;10.174;2023-06-14T10:51:03;97886.56;;;25.45;36.37
19884;BME280;10104;50.732;10.174;2023-06-14T10:53:24;97879.28;;;25.74;34.63
19884;BME280;10104;50.732;10.174;2023-06-14T10:55:46;97875.69;;;26.07;34.56
19884;BME280;10104;50.732;10.174;2023-06-14T10:58:08;97872.84;;;25.94;35.10
19884;BME280;10104;50.732;10.174;2023-06-14T11:00:33;97875.31;;;25.90;34.87
19884;BME280;10104;50.732;10.174;2023-06-14T11:05:53;97878.00;;;26.19;34.08
19884;BME280;10104;50.732;10.174;2023-06-14T11:10:59;97874.22;;;26.63;33.04
19884;BME280;10104;50.732;10.174;2023-06-14T11:13:24;97866.19;;;27.14;31.98
19884;BME280;10104;50.732;10.174;2023-06-14T11:15:47;97870.97;;;26.61;33.38
19884;BME280;10104;50.732;10.174;2023-06-14T11:18:09;97871.56;;;26.57;33.51
19884;BME280;10104;50.732;10.174;2023-06-14T11:20:32;97871.47;;;26.44;33.08
19884;BME280;10104;50.732;10.174;2023-06-14T11:22:54;97878.59;;;26.16;33.85
19884;BME280;10104;50.732;10.174;2023-06-14T11:25:16;97880.56;;;26.34;33.56
19884;BME280;10104;50.732;10.174;2023-06-14T11:27:38;97878.16;;;26.94;33.26
19884;BME280;10104;50.732;10.174;2023-06-14T11:29:59;97876.59;;;27.25;33.23
19884;BME280;10104;50.732;10.174;2023-06-14T11:32:21;97875.72;;;27.11;31.77
19884;BME280;10104;50.732;10.174;2023-06-14T11:34:46;97874.25;;;27.19;32.07
19884;BME280;10104;50.732;10.174;2023-06-14T11:37:07;97867.16;;;28.15;31.18
19884;BME280;10104;50.732;10.174;2023-06-14T11:39:29;97867.91;;;28.84;30.79
19884;BME280;10104;50.732;10.174;2023-06-14T11:41:51;97868.47;;;30.06;29.22
19884;BME280;10104;50.732;10.174;2023-06-14T11:44:13;97864.22;;;30.79;29.04
19884;BME280;10104;50.732;10.174;2023-06-14T11:46:35;97866.28;;;31.68;27.44
19884;BME280;10104;50.732;10.174;2023-06-14T11:48:57;97863.19;;;32.63;26.57
19884;BME280;10104;50.732;10.174;2023-06-14T11:51:19;97861.84;;;33.19;25.62
19884;BME280;10104;50.732;10.174;2023-06-14T11:53:42;97862.03;;;32.93;25.58
19884;BME280;10104;50.732;10.174;2023-06-14T11:56:05;97859.47;;;33.95;25.84
19884;BME280;10104;50.732;10.174;2023-06-14T11:58:27;97864.41;;;34.02;24.95
19884;BME280;10104;50.732;10.174;2023-06-14T12:00:50;97856.84;;;34.11;24.00
19884;BME280;10104;50.732;10.174;2023-06-14T12:03:12;97848.63;;;34.47;24.15
19884;BME280;10104;50.732;10.174;2023-06-14T12:05:34;97855.06;;;34.39;23.61
19884;BME280;10104;50.732;10.174;2023-06-14T12:08:03;97843.28;;;35.31;22.98
19884;BME280;10104;50.732;10.174;2023-06-14T12:10:27;97846.91;;;35.07;23.40
19884;BME280;10104;50.732;10.174;2023-06-14T12:12:49;97853.44;;;35.15;22.91
19884;BME280;10104;50.732;10.174;2023-06-14T12:15:11;97856.03;;;34.96;22.44
19884;BME280;10104;50.732;10.174;2023-06-14T12:17:37;97843.94;;;34.36;22.95
19884;BME280;10104;50.732;10.174;2023-06-14T12:20:05;97844.34;;;33.03;23.93
19884;BME280;10104;50.732;10.174;2023-06-14T12:22:30;97838.44;;;32.04;24.47
19884;BME280;10104;50.732;10.174;2023-06-14T12:24:51;97840.88;;;32.73;24.84
19884;BME280;10104;50.732;10.174;2023-06-14T12:27:13;97831.97;;;33.38;24.49
19884;BME280;10104;50.732;10.174;2023-06-14T12:29:37;97827.78;;;32.11;25.07
19884;BME280;10104;50.732;10.174;2023-06-14T12:31:58;97833.06;;;32.83;24.23
19884;BME280;10104;50.732;10.174;2023-06-14T12:34:20;97829.78;;;33.44;24.11
19884;BME280;10104;50.732;10.174;2023-06-14T12:36:42;97828.00;;;34.05;23.28
19884;BME280;10104;50.732;10.174;2023-06-14T12:39:06;97838.84;;;34.86;22.43
19884;BME280;10104;50.732;10.174;2023-06-14T12:41:27;97827.78;;;36.14;21.68
19884;BME280;10104;50.732;10.174;2023-06-14T12:43:49;97836.06;;;37.15;21.50